Time;durP1;ratioP1;P1;durP2;ratioP2;P2;SDS_P1;SDS_P2;PMS_P1;PMS_P2;Temp;Humidity;BMP_temperature;BMP_pressure;BME280_temperature;BME280_humidity;BME280_pressure;Samples;Min_cycle;Max_cycle;Signal;HPM_P1;HPM_P2
2023/02/18 00:01:48;;;;;;;;;;;21.10;59.10;;;;;;1587538;73;1573;-60
2023/02/18 00:03:50;;;;;;;;;;;21.20;59.00;;;;;;1593653;73;739;-58
2023/02/18 00:05:52;;;;;;;;;;;21.20;58.90;;;;;;1591483;73;723;-58
2023/02/18 00:07:54;;;;;;;;;;;21.20;58.90;;;;;;1587881;73;736;-59
2023/02/18 00:09:56;;;;;;;;;;;21.20;58.80;;;;;;1587044;73;1182;-60
2023/02/18 00:11:58;;;;;;;;;;;21.20;58.80;;;;;;1590100;73;793;-59
2023/02/18 00:14:00;;;;;;;;;;;21.30;58.90;;;;;;1596010;73;736;-57
2023/02/18 00:16:03;;;;;;;;;;;21.20;58.70;;;;;;1593447;73;1399;-58
2023/02/18 00:18:05;;;;;;;;;;;21.30;58.70;;;;;;1588207;73;673;-58
2023/02/18 00:20:07;;;;;;;;;;;21.20;58.60;;;;;;1591915;73;1945;-58
2023/02/18 00:22:09;;;;;;;;;;;21.20;58.50;;;;;;1591259;73;674;-58
2023/02/18 00:24:11;;;;;;;;;;;21.30;58.50;;;;;;1595313;73;681;-59
2023/02/18 00:26:14;;;;;;;;;;;21.30;58.60;;;;;;1595929;73;740;-58
2023/02/18 00:28:15;;;;;;;;;;;21.20;58.40;;;;;;1588473;73;692;-60
2023/02/18 00:30:18;;;;;;;;;;;21.30;58.50;;;;;;1595863;73;1521;-59
2023/02/18 00:32:19;;;;;;;;;;;21.30;58.50;;;;;;1593522;73;719;-59
2023/02/18 00:34:21;;;;;;;;;;;21.20;58.40;;;;;;1607442;73;669;-59
2023/02/18 00:36:23;;;;;;;;;;;21.30;58.70;;;;;;1585361;73;689;-60
2023/02/18 00:38:25;;;;;;;;;;;21.30;58.60;;;;;;1592105;73;799;-58
2023/02/18 00:40:27;;;;;;;;;;;21.30;58.40;;;;;;1588316;73;1933;-59
2023/02/18 00:42:29;;;;;;;;;;;21.30;58.40;;;;;;1593981;73;673;-60
2023/02/18 00:44:31;;;;;;;;;;;21.20;58.40;;;;;;1591055;73;1375;-60
2023/02/18 00:46:33;;;;;;;;;;;21.20;58.40;;;;;;1590488;73;694;-60
2023/02/18 00:48:34;;;;;;;;;;;21.20;58.40;;;;;;1591182;73;728;-58
2023/02/18 00:50:36;;;;;;;;;;;21.30;58.50;;;;;;1588864;73;1131;-58
2023/02/18 00:52:38;;;;;;;;;;;21.20;58.40;;;;;;1602846;73;691;-58
2023/02/18 00:54:40;;;;;;;;;;;21.20;58.50;;;;;;1585010;73;797;-61
2023/02/18 00:56:42;;;;;;;;;;;21.10;58.50;;;;;;1585642;73;729;-60
2023/02/18 00:58:44;;;;;;;;;;;21.20;58.50;;;;;;1592318;73;1925;-61
2023/02/18 01:00:46;;;;;;;;;;;21.10;58.50;;;;;;1588957;73;1104;-58
2023/02/18 01:02:48;;;;;;;;;;;21.10;58.60;;;;;;1595397;73;724;-58
2023/02/18 01:04:49;;;;;;;;;;;21.20;58.40;;;;;;1587150;73;714;-58
2023/02/18 01:06:51;;;;;;;;;;;21.30;58.50;;;;;;1588624;73;714;-59
2023/02/18 01:08:53;;;;;;;;;;;21.30;57.90;;;;;;1597061;73;705;-59
2023/02/18 01:10:56;;;;;;;;;;;21.30;57.70;;;;;;1589748;73;1147;-59
2023/02/18 01:12:57;;;;;;;;;;;21.40;57.50;;;;;;1566501;74;1345;-58
2023/02/18 01:14:59;;;;;;;;;;;21.50;57.50;;;;;;1590845;73;625;-59
2023/02/18 01:17:01;;;;;;;;;;;21.40;57.30;;;;;;1601884;73;671;-60
2023/02/18 01:19:03;;;;;;;;;;;21.40;57.40;;;;;;1602458;73;1945;-58
2023/02/18 01:21:07;;;;;;;;;;;21.30;57.50;;;;;;1601333;73;1147;-59
2023/02/18 01:23:09;;;;;;;;;;;21.40;57.40;;;;;;1591634;73;773;-58
2023/02/18 01:25:11;;;;;;;;;;;21.40;57.30;;;;;;1586101;73;767;-60
2023/02/18 01:27:13;;;;;;;;;;;21.40;57.50;;;;;;1592858;73;1545;-61
2023/02/18 01:29:14;;;;;;;;;;;21.30;57.40;;;;;;1594050;73;726;-59
2023/02/18 01:31:16;;;;;;;;;;;21.30;57.50;;;;;;1599706;73;1111;-60
2023/02/18 01:33:19;;;;;;;;;;;21.30;57.40;;;;;;1593314;73;775;-59
2023/02/18 01:35:21;;;;;;;;;;;21.30;57.50;;;;;;1591776;73;741;-60
2023/02/18 01:37:22;;;;;;;;;;;21.30;57.60;;;;;;1602016;73;750;-60
2023/02/18 01:39:24;;;;;;;;;;;21.20;57.40;;;;;;1592092;73;1953;-58
2023/02/18 01:41:26;;;;;;;;;;;21.20;57.60;;;;;;1596383;73;1554;-59
2023/02/18 01:43:28;;;;;;;;;;;21.40;57.60;;;;;;1597622;73;670;-58
2023/02/18 01:45:39;;;;;;;;;;;21.40;57.30;;;;;;1590423;73;660;-60
2023/02/18 01:47:38;;;;;;;;;;;21.40;57.20;;;;;;1583342;73;1854;-61
2023/02/18 01:49:40;;;;;;;;;;;21.30;57.20;;;;;;1594984;73;751;-61
2023/02/18 01:51:43;;;;;;;;;;;21.40;57.50;;;;;;1599409;73;1115;-58
2023/02/18 01:53:47;;;;;;;;;;;21.30;59.40;;;;;;1582039;73;854;-59
2023/02/18 01:55:49;;;;;;;;;;;21.20;58.30;;;;;;1592011;73;742;-61
2023/02/18 01:57:51;;;;;;;;;;;21.20;57.60;;;;;;1585336;73;763;-58
2023/02/18 01:59:54;;;;;;;;;;;21.30;57.60;;;;;;1586654;73;1930;-58
2023/02/18 02:01:56;;;;;;;;;;;21.30;57.30;;;;;;1594199;73;857;-60
2023/02/18 02:03:58;;;;;;;;;;;21.30;57.10;;;;;;1569424;74;879;-60
2023/02/18 02:06:00;;;;;;;;;;;21.40;57.10;;;;;;1597717;73;744;-60
2023/02/18 02:08:02;;;;;;;;;;;21.40;57.00;;;;;;1588986;73;1342;-59
2023/02/18 02:10:04;;;;;;;;;;;21.40;56.80;;;;;;1594436;73;1131;-60
2023/02/18 02:12:20;;;;;;;;;;;21.40;56.80;;;;;;1573518;73;1132;-60
2023/02/18 02:14:23;;;;;;;;;;;21.50;56.90;;;;;;1575655;73;1955;-59
2023/02/18 02:16:39;;;;;;;;;;;21.50;56.90;;;;;;1579257;73;722;-59
2023/02/18 02:18:42;;;;;;;;;;;21.40;56.70;;;;;;1576738;73;726;-59
2023/02/18 02:20:58;;;;;;;;;;;21.50;56.80;;;;;;1570543;73;1932;-59
2023/02/18 02:23:07;;;;;;;;;;;21.40;56.70;;;;;;1578078;73;1549;-58
2023/02/18 02:25:27;;;;;;;;;;;21.50;56.90;;;;;;1575414;73;1824;-60
2023/02/18 02:27:32;;;;;;;;;;;21.40;56.70;;;;;;1570110;73;703;-61
2023/02/18 02:29:42;;;;;;;;;;;21.40;56.70;;;;;;1576552;73;701;-60
2023/02/18 02:31:51;;;;;;;;;;;21.40;56.80;;;;;;1592422;73;1654;-61
2023/02/18 02:34:07;;;;;;;;;;;21.50;56.80;;;;;;1540208;73;1019;-60
2023/02/18 02:36:10;;;;;;;;;;;21.40;56.70;;;;;;1584761;73;1484;-60
2023/02/18 02:38:14;;;;;;;;;;;21.40;56.70;;;;;;1572765;73;2358;-60
2023/02/18 02:40:20;;;;;;;;;;;21.40;56.70;;;;;;1596443;73;1965;-60
2023/02/18 02:42:26;;;;;;;;;;;21.40;56.70;;;;;;1583240;73;715;-59
2023/02/18 02:44:33;;;;;;;;;;;21.40;57.40;;;;;;1573934;73;733;-61
2023/02/18 02:46:36;;;;;;;;;;;21.30;56.80;;;;;;1585341;73;1044;-60
2023/02/18 02:48:49;;;;;;;;;;;21.30;57.00;;;;;;1576004;73;805;-59
2023/02/18 02:50:52;;;;;;;;;;;21.30;57.10;;;;;;1603881;73;1613;-59
2023/02/18 02:52:59;;;;;;;;;;;21.20;57.10;;;;;;1583588;73;639;-60
2023/02/18 02:55:00;;;;;;;;;;;21.30;57.20;;;;;;1603068;73;727;-60
2023/02/18 02:57:10;;;;;;;;;;;21.20;57.10;;;;;;1544021;74;1152;-60
2023/02/18 02:59:16;;;;;;;;;;;21.20;57.20;;;;;;1589391;73;754;-59
2023/02/18 03:01:23;;;;;;;;;;;21.20;57.20;;;;;;1589749;73;1127;-59
2023/02/18 03:03:38;;;;;;;;;;;21.20;57.20;;;;;;1580313;73;1612;-59
2023/02/18 03:05:44;;;;;;;;;;;21.20;57.20;;;;;;1589808;73;1561;-59
2023/02/18 03:07:51;;;;;;;;;;;21.20;57.30;;;;;;1590560;73;743;-61
2023/02/18 03:10:07;;;;;;;;;;;21.20;57.30;;;;;;1569098;73;2019;-59
2023/02/18 03:12:22;;;;;;;;;;;21.10;57.40;;;;;;1579368;73;1915;-59
2023/02/18 03:14:32;;;;;;;;;;;21.20;57.30;;;;;;1577086;73;775;-59
2023/02/18 03:16:52;;;;;;;;;;;21.20;57.20;;;;;;1563034;73;1320;-60
2023/02/18 03:18:55;;;;;;;;;;;21.10;57.30;;;;;;1570980;73;1531;-59
2023/02/18 03:20:59;;;;;;;;;;;21.10;57.40;;;;;;1587226;73;1948;-61
2023/02/18 03:23:03;;;;;;;;;;;21.10;57.70;;;;;;1579560;73;732;-60
2023/02/18 03:25:05;;;;;;;;;;;21.00;57.70;;;;;;1574175;73;743;-59
2023/02/18 03:27:11;;;;;;;;;;;21.00;58.20;;;;;;1581652;73;718;-60
2023/02/18 03:29:13;;;;;;;;;;;21.00;58.90;;;;;;1590946;73;1812;-60
2023/02/18 03:31:16;;;;;;;;;;;20.90;58.90;;;;;;1581818;73;1147;-60
2023/02/18 03:33:20;;;;;;;;;;;20.90;58.90;;;;;;1577496;73;1409;-60
2023/02/18 03:35:21;;;;;;;;;;;20.90;58.80;;;;;;1587985;73;753;-59
2023/02/18 03:37:23;;;;;;;;;;;21.00;58.70;;;;;;1592418;73;718;-60
2023/02/18 03:39:26;;;;;;;;;;;21.00;58.50;;;;;;1588270;73;762;-59
2023/02/18 03:41:28;;;;;;;;;;;21.00;58.40;;;;;;1589765;73;1932;-60
2023/02/18 03:43:29;;;;;;;;;;;21.00;58.20;;;;;;1594187;73;749;-59
2023/02/18 03:45:31;;;;;;;;;;;21.00;58.20;;;;;;1581579;73;755;-60
2023/02/18 03:47:33;;;;;;;;;;;21.00;57.70;;;;;;1601799;73;1580;-60
2023/02/18 03:49:35;;;;;;;;;;;21.00;57.60;;;;;;1598078;73;706;-59
2023/02/18 03:51:37;;;;;;;;;;;21.10;57.60;;;;;;1589123;73;1095;-60
2023/02/18 03:53:39;;;;;;;;;;;21.10;57.60;;;;;;1588715;73;756;-59
2023/02/18 03:55:41;;;;;;;;;;;21.10;57.60;;;;;;1604396;73;732;-60
2023/02/18 03:57:43;;;;;;;;;;;21.00;57.60;;;;;;1574081;73;807;-58
2023/02/18 03:59:45;;;;;;;;;;;21.00;57.50;;;;;;1583080;73;1937;-60
2023/02/18 04:01:47;;;;;;;;;;;21.00;57.50;;;;;;1587348;73;1592;-60
2023/02/18 04:03:49;;;;;;;;;;;21.10;57.50;;;;;;1582819;73;704;-60
2023/02/18 04:05:50;;;;;;;;;;;21.20;57.50;;;;;;1577634;73;691;-59
2023/02/18 04:07:52;;;;;;;;;;;21.20;57.30;;;;;;1568795;73;709;-58
2023/02/18 04:09:54;;;;;;;;;;;21.20;57.20;;;;;;1578634;73;1157;-58
2023/02/18 04:11:56;;;;;;;;;;;21.20;57.10;;;;;;1569688;73;1117;-60
2023/02/18 04:13:58;;;;;;;;;;;21.20;57.40;;;;;;1582491;73;696;-60
2023/02/18 04:16:00;;;;;;;;;;;21.10;57.40;;;;;;1583130;73;1546;-61
2023/02/18 04:18:02;;;;;;;;;;;21.20;57.60;;;;;;1586978;73;722;-61
2023/02/18 04:20:04;;;;;;;;;;;21.10;57.40;;;;;;1594643;73;1931;-59
2023/02/18 04:22:06;;;;;;;;;;;21.20;57.50;;;;;;1585253;73;753;-59
2023/02/18 04:24:08;;;;;;;;;;;21.10;57.60;;;;;;1585279;73;735;-59
2023/02/18 04:26:10;;;;;;;;;;;21.10;57.40;;;;;;1591381;73;672;-59
2023/02/18 04:28:13;;;;;;;;;;;21.10;57.40;;;;;;1582091;73;701;-58
2023/02/18 04:30:14;;;;;;;;;;;21.10;57.50;;;;;;1582097;73;1684;-60
2023/02/18 04:32:16;;;;;;;;;;;21.10;57.80;;;;;;1592516;73;683;-59
2023/02/18 04:34:18;;;;;;;;;;;21.10;58.50;;;;;;1603742;73;669;-60
2023/02/18 04:36:20;;;;;;;;;;;21.00;58.20;;;;;;1589168;73;774;-61
2023/02/18 04:38:22;;;;;;;;;;;21.00;58.20;;;;;;1600693;73;769;-59
2023/02/18 04:40:29;;;;;;;;;;;21.10;57.70;;;;;;1588722;73;1939;-61
2023/02/18 04:42:30;;;;;;;;;;;21.00;57.60;;;;;;1609386;73;1720;-59
2023/02/18 04:44:32;;;;;;;;;;;21.20;57.50;;;;;;1610002;73;1660;-58
2023/02/18 04:46:34;;;;;;;;;;;21.20;57.30;;;;;;1594000;73;695;-60
2023/02/18 04:48:36;;;;;;;;;;;21.10;57.20;;;;;;1574185;73;755;-60
2023/02/18 04:50:38;;;;;;;;;;;21.10;57.20;;;;;;1598027;73;1109;-60
2023/02/18 04:52:40;;;;;;;;;;;21.10;57.10;;;;;;1577955;73;783;-60
2023/02/18 04:54:41;;;;;;;;;;;21.10;57.10;;;;;;1597576;73;739;-60
2023/02/18 04:56:43;;;;;;;;;;;21.10;57.20;;;;;;1594400;73;1400;-59
2023/02/18 04:58:45;;;;;;;;;;;21.10;57.10;;;;;;1597570;73;764;-61
2023/02/18 05:00:47;;;;;;;;;;;21.10;57.10;;;;;;1598654;73;1952;-59
2023/02/18 05:02:49;;;;;;;;;;;21.20;57.10;;;;;;1597489;73;695;-59
2023/02/18 05:04:51;;;;;;;;;;;21.10;57.10;;;;;;1588775;73;736;-59
2023/02/18 05:06:53;;;;;;;;;;;21.10;57.20;;;;;;1596344;73;705;-59
2023/02/18 05:08:54;;;;;;;;;;;21.20;57.10;;;;;;1582687;73;696;-59
2023/02/18 05:10:56;;;;;;;;;;;21.20;57.00;;;;;;1592712;73;1526;-59
2023/02/18 05:12:58;;;;;;;;;;;21.10;56.90;;;;;;1579804;73;1112;-60
2023/02/18 05:15:00;;;;;;;;;;;21.20;56.80;;;;;;1601455;73;713;-61
2023/02/18 05:17:02;;;;;;;;;;;21.20;56.80;;;;;;1598813;73;672;-61
2023/02/18 05:19:04;;;;;;;;;;;21.30;56.90;;;;;;1597024;73;724;-60
2023/02/18 05:21:06;;;;;;;;;;;21.40;56.80;;;;;;1593309;73;1947;-60
2023/02/18 05:23:08;;;;;;;;;;;21.30;56.80;;;;;;1592073;73;702;-60
2023/02/18 05:25:09;;;;;;;;;;;21.30;57.60;;;;;;1603637;73;1577;-60
2023/02/18 05:27:11;;;;;;;;;;;21.10;58.50;;;;;;1608844;73;739;-60
2023/02/18 05:29:13;;;;;;;;;;;20.90;58.90;;;;;;1593728;73;748;-59
2023/02/18 05:31:15;;;;;;;;;;;21.00;58.90;;;;;;1595965;73;1128;-60
2023/02/18 05:33:17;;;;;;;;;;;20.90;58.80;;;;;;1593824;73;763;-59
2023/02/18 05:35:19;;;;;;;;;;;21.00;58.60;;;;;;1600788;73;670;-60
2023/02/18 05:37:21;;;;;;;;;;;21.10;58.60;;;;;;1600875;73;687;-61
2023/02/18 05:39:22;;;;;;;;;;;21.00;58.50;;;;;;1600206;73;1498;-59
2023/02/18 05:41:24;;;;;;;;;;;21.00;58.50;;;;;;1600712;73;1948;-60
2023/02/18 05:43:26;;;;;;;;;;;21.00;58.40;;;;;;1594999;73;771;-60
2023/02/18 05:45:28;;;;;;;;;;;21.00;58.40;;;;;;1593729;73;690;-59
2023/02/18 05:47:30;;;;;;;;;;;21.10;58.60;;;;;;1591047;73;590;-61
2023/02/18 05:49:32;;;;;;;;;;;21.10;58.60;;;;;;1596720;73;766;-61
2023/02/18 05:51:34;;;;;;;;;;;21.10;59.00;;;;;;1596585;73;1164;-61
2023/02/18 05:53:36;;;;;;;;;;;21.00;58.90;;;;;;1597681;73;1572;-61
2023/02/18 05:55:38;;;;;;;;;;;21.00;58.80;;;;;;1600402;73;734;-61
2023/02/18 05:57:40;;;;;;;;;;;21.10;58.70;;;;;;1599207;73;808;-61
2023/02/18 05:59:42;;;;;;;;;;;21.10;58.60;;;;;;1594626;73;759;-61
2023/02/18 06:01:44;;;;;;;;;;;21.10;58.40;;;;;;1595292;73;1907;-61
2023/02/18 06:03:46;;;;;;;;;;;21.00;58.30;;;;;;1599126;73;970;-61
2023/02/18 06:05:51;;;;;;;;;;;21.10;58.30;;;;;;1598027;73;708;-61
2023/02/18 06:07:53;;;;;;;;;;;21.10;57.80;;;;;;1591833;73;1319;-61
2023/02/18 06:09:54;;;;;;;;;;;21.20;57.60;;;;;;1594147;73;1151;-61
2023/02/18 06:11:56;;;;;;;;;;;21.10;57.60;;;;;;1596384;73;753;-61
2023/02/18 06:13:58;;;;;;;;;;;21.10;57.60;;;;;;1596403;73;1086;-61
2023/02/18 06:16:00;;;;;;;;;;;21.10;57.50;;;;;;1591961;73;764;-61
2023/02/18 06:18:02;;;;;;;;;;;21.20;57.30;;;;;;1594900;73;737;-61
2023/02/18 06:20:04;;;;;;;;;;;21.20;57.30;;;;;;1601951;73;1166;-61
2023/02/18 06:22:06;;;;;;;;;;;21.10;57.20;;;;;;1592254;73;1939;-61
2023/02/18 06:24:08;;;;;;;;;;;21.20;57.10;;;;;;1592731;73;589;-61
2023/02/18 06:26:10;;;;;;;;;;;21.10;56.80;;;;;;1603032;73;689;-61
2023/02/18 06:28:12;;;;;;;;;;;21.10;57.10;;;;;;1595636;73;690;-61
2023/02/18 06:30:14;;;;;;;;;;;21.10;57.10;;;;;;1592452;73;1077;-62
2023/02/18 06:32:16;;;;;;;;;;;21.20;57.10;;;;;;1592952;73;766;-61
2023/02/18 06:34:17;;;;;;;;;;;21.20;57.00;;;;;;1605777;73;748;-61
2023/02/18 06:36:19;;;;;;;;;;;21.10;57.00;;;;;;1597606;73;1631;-62
2023/02/18 06:38:21;;;;;;;;;;;21.00;56.70;;;;;;1594690;73;766;-62
2023/02/18 06:40:23;;;;;;;;;;;21.00;57.10;;;;;;1602331;73;1139;-61
2023/02/18 06:42:25;;;;;;;;;;;20.90;57.00;;;;;;1597022;73;1931;-61
2023/02/18 06:44:27;;;;;;;;;;;20.80;54.00;;;;;;1592137;73;655;-61
2023/02/18 06:46:29;;;;;;;;;;;20.90;55.80;;;;;;1595936;73;675;-61
2023/02/18 06:48:31;;;;;;;;;;;20.80;54.90;;;;;;1596995;73;819;-61
2023/02/18 06:50:32;;;;;;;;;;;21.00;54.40;;;;;;1596408;73;1542;-60
2023/02/18 06:52:36;;;;;;;;;;;21.00;54.00;;;;;;1595249;73;726;-60
2023/02/18 06:54:38;;;;;;;;;;;21.10;53.80;;;;;;1592580;73;726;-62
2023/02/18 06:56:40;;;;;;;;;;;21.00;53.60;;;;;;1591209;73;728;-61
2023/02/18 06:58:42;;;;;;;;;;;21.00;53.40;;;;;;1598515;73;740;-61
2023/02/18 07:00:44;;;;;;;;;;;20.90;53.30;;;;;;1598880;73;1955;-61
2023/02/18 07:02:45;;;;;;;;;;;20.90;53.40;;;;;;1614119;73;690;-62
2023/02/18 07:04:47;;;;;;;;;;;20.90;53.50;;;;;;1596651;73;1492;-61
2023/02/18 07:06:49;;;;;;;;;;;20.90;53.40;;;;;;1593775;73;732;-61
2023/02/18 07:08:51;;;;;;;;;;;20.80;53.30;;;;;;1603649;73;733;-61
2023/02/18 07:10:53;;;;;;;;;;;20.90;53.40;;;;;;1604975;73;1131;-61
2023/02/18 07:12:55;;;;;;;;;;;20.80;53.20;;;;;;1597282;73;682;-61
2023/02/18 07:14:57;;;;;;;;;;;20.80;53.20;;;;;;1583740;73;1113;-62
2023/02/18 07:16:58;;;;;;;;;;;20.70;53.10;;;;;;1589153;73;703;-61
2023/02/18 07:19:00;;;;;;;;;;;20.80;53.20;;;;;;1582175;73;1597;-62
2023/02/18 07:21:02;;;;;;;;;;;20.80;53.30;;;;;;1582785;73;1934;-61
2023/02/18 07:23:04;;;;;;;;;;;20.80;53.20;;;;;;1582186;73;1147;-66
2023/02/18 07:25:06;;;;;;;;;;;20.70;53.20;;;;;;1572421;74;1492;-62
2023/02/18 07:27:08;;;;;;;;;;;20.80;53.20;;;;;;1579785;74;1443;-62
2023/02/18 07:29:10;;;;;;;;;;;20.70;53.10;;;;;;1572780;75;1457;-60
2023/02/18 07:31:12;;;;;;;;;;;20.70;53.10;;;;;;1570348;74;1504;-60
2023/02/18 07:33:14;;;;;;;;;;;20.70;53.10;;;;;;1582698;74;1584;-62
2023/02/18 07:35:16;;;;;;;;;;;20.60;53.00;;;;;;1581569;74;1467;-61
2023/02/18 07:37:18;;;;;;;;;;;20.60;53.00;;;;;;1577470;74;1112;-61
2023/02/18 07:39:20;;;;;;;;;;;20.60;53.00;;;;;;1580418;74;1091;-62
2023/02/18 07:41:22;;;;;;;;;;;20.60;53.00;;;;;;1569841;74;1953;-61
2023/02/18 07:43:24;;;;;;;;;;;20.60;53.10;;;;;;1578086;74;1527;-60
2023/02/18 07:45:26;;;;;;;;;;;20.60;53.00;;;;;;1577344;74;1475;-61
2023/02/18 07:47:28;;;;;;;;;;;20.60;53.00;;;;;;1573436;74;1100;-61
2023/02/18 07:49:29;;;;;;;;;;;20.50;53.00;;;;;;1576386;74;1104;-62
2023/02/18 07:51:31;;;;;;;;;;;20.50;53.00;;;;;;1570622;74;1139;-62
2023/02/18 07:53:33;;;;;;;;;;;20.50;53.10;;;;;;1579255;74;1086;-61
2023/02/18 07:55:51;;;;;;;;;;;20.50;52.90;;;;;;1565577;75;1128;-61
2023/02/18 07:58:01;;;;;;;;;;;20.50;52.80;;;;;;1568789;74;1175;-61
2023/02/18 08:00:02;;;;;;;;;;;20.40;52.80;;;;;;1577059;74;1242;-61
2023/02/18 08:02:06;;;;;;;;;;;20.40;52.70;;;;;;1570338;74;1940;-61
2023/02/18 08:04:08;;;;;;;;;;;20.50;52.60;;;;;;1577029;74;1151;-60
2023/02/18 08:06:11;;;;;;;;;;;20.40;52.60;;;;;;1578621;74;1132;-61
2023/02/18 08:08:14;;;;;;;;;;;20.40;52.50;;;;;;1574605;74;1858;-61
2023/02/18 08:10:16;;;;;;;;;;;20.40;52.50;;;;;;1573424;74;1673;-60
2023/02/18 08:12:17;;;;;;;;;;;20.40;52.60;;;;;;1575444;74;1187;-61
2023/02/18 08:14:19;;;;;;;;;;;20.30;52.50;;;;;;1574134;74;1168;-60
2023/02/18 08:16:21;;;;;;;;;;;20.30;52.40;;;;;;1578180;74;1084;-61
2023/02/18 08:18:23;;;;;;;;;;;20.20;52.00;;;;;;1565958;74;1080;-60
2023/02/18 08:20:25;;;;;;;;;;;20.30;52.50;;;;;;1572997;74;1198;-61
2023/02/18 08:22:27;;;;;;;;;;;20.30;52.80;;;;;;1575045;74;1937;-61
2023/02/18 08:24:29;;;;;;;;;;;20.30;53.10;;;;;;1584408;73;1108;-61
2023/02/18 08:26:31;;;;;;;;;;;20.20;53.30;;;;;;1601523;73;1520;-61
2023/02/18 08:28:33;;;;;;;;;;;20.20;53.60;;;;;;1594399;73;1494;-61
2023/02/18 08:30:34;;;;;;;;;;;20.20;53.70;;;;;;1605349;73;1168;-61
2023/02/18 08:32:36;;;;;;;;;;;20.20;53.90;;;;;;1592266;73;1220;-64
2023/02/18 08:34:38;;;;;;;;;;;20.20;54.00;;;;;;1600040;73;1494;-65
2023/02/18 08:36:40;;;;;;;;;;;20.30;54.20;;;;;;1592403;73;1312;-65
2023/02/18 08:38:42;;;;;;;;;;;20.20;54.30;;;;;;1602010;73;1415;-65
2023/02/18 08:40:44;;;;;;;;;;;20.30;54.40;;;;;;1598400;73;1319;-63
2023/02/18 08:42:46;;;;;;;;;;;20.30;54.50;;;;;;1599897;73;1952;-62
2023/02/18 08:44:48;;;;;;;;;;;20.30;54.50;;;;;;1603879;73;1227;-63
2023/02/18 08:46:50;;;;;;;;;;;20.30;54.50;;;;;;1595180;73;1325;-63
2023/02/18 08:48:52;;;;;;;;;;;20.40;54.40;;;;;;1606209;73;1274;-63
2023/02/18 08:50:54;;;;;;;;;;;20.40;54.50;;;;;;1594000;73;1175;-63
2023/02/18 08:52:59;;;;;;;;;;;20.40;54.40;;;;;;1597879;73;1445;-63
2023/02/18 08:54:59;;;;;;;;;;;20.40;54.50;;;;;;1594823;73;1637;-63
2023/02/18 08:57:01;;;;;;;;;;;20.40;54.50;;;;;;1595814;73;1466;-63
2023/02/18 08:59:03;;;;;;;;;;;20.40;54.50;;;;;;1592606;73;1372;-63
2023/02/18 09:01:05;;;;;;;;;;;20.40;54.60;;;;;;1596265;73;1143;-64
2023/02/18 09:03:07;;;;;;;;;;;20.40;54.70;;;;;;1601007;73;1932;-63
2023/02/18 09:05:09;;;;;;;;;;;20.40;54.90;;;;;;1596344;73;1288;-64
2023/02/18 09:07:11;;;;;;;;;;;20.50;55.00;;;;;;1597781;73;1494;-63
2023/02/18 09:09:13;;;;;;;;;;;20.40;55.00;;;;;;1609553;73;1311;-63
2023/02/18 09:11:15;;;;;;;;;;;20.50;55.20;;;;;;1598365;73;1324;-66
2023/02/18 09:13:16;;;;;;;;;;;20.50;55.90;;;;;;1594432;73;1285;-64
2023/02/18 09:15:18;;;;;;;;;;;20.40;56.50;;;;;;1598536;73;754;-63
2023/02/18 09:17:20;;;;;;;;;;;20.50;56.80;;;;;;1596158;73;692;-64
2023/02/18 09:19:22;;;;;;;;;;;20.50;56.90;;;;;;1598896;73;771;-63
2023/02/18 09:21:24;;;;;;;;;;;20.50;57.20;;;;;;1604841;73;1139;-63
2023/02/18 09:23:27;;;;;;;;;;;20.50;58.20;;;;;;1589882;73;1919;-63
2023/02/18 09:25:29;;;;;;;;;;;20.50;58.50;;;;;;1599627;73;1653;-63
2023/02/18 09:27:30;;;;;;;;;;;20.50;58.40;;;;;;1610932;73;758;-63
2023/02/18 09:29:32;;;;;;;;;;;20.50;58.60;;;;;;1599748;73;777;-63
2023/02/18 09:31:34;;;;;;;;;;;20.50;59.00;;;;;;1600369;73;1187;-63
2023/02/18 09:33:37;;;;;;;;;;;20.70;59.50;;;;;;1595464;73;814;-63
2023/02/18 09:35:39;;;;;;;;;;;20.60;59.70;;;;;;1599768;73;689;-63
2023/02/18 09:37:41;;;;;;;;;;;20.60;59.70;;;;;;1606404;73;759;-63
2023/02/18 09:39:43;;;;;;;;;;;20.70;59.80;;;;;;1593981;73;1677;-63
2023/02/18 09:41:46;;;;;;;;;;;20.70;60.10;;;;;;1599896;73;1933;-63
2023/02/18 09:43:48;;;;;;;;;;;20.70;59.90;;;;;;1598968;73;782;-63
2023/02/18 09:45:50;;;;;;;;;;;20.70;60.20;;;;;;1600882;73;755;-63
2023/02/18 09:47:52;;;;;;;;;;;20.70;60.10;;;;;;1588651;73;714;-63
2023/02/18 09:49:54;;;;;;;;;;;20.80;60.30;;;;;;1590649;73;1116;-63
2023/02/18 09:51:57;;;;;;;;;;;20.80;60.40;;;;;;1599144;73;1191;-63
2023/02/18 09:53:59;;;;;;;;;;;20.80;60.40;;;;;;1591495;73;791;-63
2023/02/18 09:56:00;;;;;;;;;;;20.80;60.40;;;;;;1590168;73;668;-63
2023/02/18 09:58:06;;;;;;;;;;;20.90;60.60;;;;;;1602506;73;719;-63
2023/02/18 10:00:25;;;;;;;;;;;20.90;60.50;;;;;;1596357;73;1139;-63
2023/02/18 10:02:27;;;;;;;;;;;20.90;60.70;;;;;;1595211;73;1938;-63
2023/02/18 10:04:31;;;;;;;;;;;21.00;60.70;;;;;;1589066;73;810;-64
2023/02/18 10:06:33;;;;;;;;;;;21.00;60.80;;;;;;1601956;73;1532;-64
2023/02/18 10:08:37;;;;;;;;;;;21.00;60.80;;;;;;1596154;73;764;-64
2023/02/18 10:10:42;;;;;;;;;;;21.00;60.90;;;;;;1593094;73;1801;-64
2023/02/18 10:12:44;;;;;;;;;;;21.10;61.00;;;;;;1602765;73;945;-63
2023/02/18 10:14:47;;;;;;;;;;;21.10;61.90;;;;;;1609223;73;785;-64
2023/02/18 10:16:50;;;;;;;;;;;21.10;61.30;;;;;;1601527;73;1817;-64
2023/02/18 10:18:53;;;;;;;;;;;21.10;61.10;;;;;;1591258;73;695;-64
2023/02/18 10:20:56;;;;;;;;;;;21.10;61.20;;;;;;1600637;73;1574;-64
2023/02/18 10:22:59;;;;;;;;;;;21.10;61.20;;;;;;1593833;73;1925;-64
2023/02/18 10:25:02;;;;;;;;;;;21.10;61.20;;;;;;1595909;73;971;-64
2023/02/18 10:27:05;;;;;;;;;;;21.10;61.00;;;;;;1596655;73;656;-65
2023/02/18 10:29:08;;;;;;;;;;;21.20;61.00;;;;;;1599834;73;785;-64
2023/02/18 10:31:10;;;;;;;;;;;21.20;61.00;;;;;;1603366;73;1415;-64
2023/02/18 10:33:17;;;;;;;;;;;21.30;61.20;;;;;;1608600;73;780;-64
2023/02/18 10:35:26;;;;;;;;;;;21.20;61.00;;;;;;1593442;73;1386;-64
2023/02/18 10:37:32;;;;;;;;;;;21.20;61.00;;;;;;1563238;75;1438;-64
2023/02/18 10:39:38;;;;;;;;;;;21.30;61.00;;;;;;1590898;73;726;-64
2023/02/18 10:41:58;;;;;;;;;;;21.30;61.00;;;;;;1595067;73;1984;-64
2023/02/18 10:44:02;;;;;;;;;;;21.30;61.10;;;;;;1589551;73;1911;-64
2023/02/18 10:46:05;;;;;;;;;;;21.30;60.90;;;;;;1597732;73;1934;-64
2023/02/18 10:48:09;;;;;;;;;;;21.30;60.90;;;;;;1594254;73;1653;-64
2023/02/18 10:50:15;;;;;;;;;;;21.40;60.80;;;;;;1591129;73;1909;-64
2023/02/18 10:52:17;;;;;;;;;;;21.40;60.80;;;;;;1598437;73;1802;-64
2023/02/18 10:54:21;;;;;;;;;;;21.40;60.60;;;;;;1601389;73;673;-64
2023/02/18 10:56:39;;;;;;;;;;;21.30;60.70;;;;;;1601499;73;1462;-64
2023/02/18 10:58:45;;;;;;;;;;;21.30;60.70;;;;;;1590426;73;755;-64
2023/02/18 11:00:47;;;;;;;;;;;21.30;60.60;;;;;;1592449;73;1187;-64
2023/02/18 11:02:50;;;;;;;;;;;21.40;60.50;;;;;;1547878;76;1923;-63
2023/02/18 11:04:52;;;;;;;;;;;21.50;60.60;;;;;;1521091;76;1844;-64
2023/02/18 11:06:54;;;;;;;;;;;21.40;61.80;;;;;;1553979;75;738;-63
2023/02/18 11:08:56;;;;;;;;;;;21.50;62.50;;;;;;1529981;75;771;-63
2023/02/18 11:10:58;;;;;;;;;;;21.40;62.50;;;;;;1585082;74;1149;-65
2023/02/18 11:13:00;;;;;;;;;;;21.40;62.90;;;;;;1582213;74;674;-64
2023/02/18 11:15:16;;;;;;;;;;;21.50;62.50;;;;;;1582344;74;644;-64
2023/02/18 11:17:20;;;;;;;;;;;21.50;62.40;;;;;;1590065;74;1565;-63
2023/02/18 11:19:32;;;;;;;;;;;21.50;61.50;;;;;;1581310;74;783;-64
2023/02/18 11:21:35;;;;;;;;;;;21.50;60.60;;;;;;1580935;74;1097;-63
2023/02/18 11:23:39;;;;;;;;;;;21.50;59.60;;;;;;1594051;74;1907;-64
2023/02/18 11:25:41;;;;;;;;;;;21.50;59.60;;;;;;1583653;74;1636;-63
2023/02/18 11:27:53;;;;;;;;;;;21.50;59.90;;;;;;1592153;73;693;-63
2023/02/18 11:29:56;;;;;;;;;;;21.50;60.20;;;;;;1557897;75;1180;-64
2023/02/18 11:31:58;;;;;;;;;;;21.50;60.30;;;;;;1585004;73;1787;-63
2023/02/18 11:34:01;;;;;;;;;;;21.50;60.50;;;;;;1585069;74;749;-64
2023/02/18 11:36:05;;;;;;;;;;;21.40;60.50;;;;;;1549437;76;982;-64
2023/02/18 11:38:09;;;;;;;;;;;21.50;60.50;;;;;;1548443;76;730;-64
2023/02/18 11:40:21;;;;;;;;;;;21.50;60.30;;;;;;1543431;76;1722;-64
2023/02/18 11:42:25;;;;;;;;;;;21.50;60.10;;;;;;1538777;76;1761;-63
2023/02/18 11:44:34;;;;;;;;;;;21.50;60.10;;;;;;1544779;76;1545;-64
2023/02/18 11:46:36;;;;;;;;;;;21.50;60.10;;;;;;1533697;75;1794;-63
2023/02/18 11:48:38;;;;;;;;;;;21.40;60.00;;;;;;1546670;75;712;-63
2023/02/18 11:50:40;;;;;;;;;;;21.50;60.00;;;;;;1546078;75;1164;-64
2023/02/18 11:52:46;;;;;;;;;;;21.50;60.00;;;;;;1548534;75;787;-63
2023/02/18 11:55:01;;;;;;;;;;;21.40;59.90;;;;;;1535508;76;871;-63
2023/02/18 11:57:05;;;;;;;;;;;21.40;59.80;;;;;;1545887;75;899;-63
2023/02/18 11:59:08;;;;;;;;;;;21.40;59.80;;;;;;1536738;75;1812;-63
2023/02/18 12:01:24;;;;;;;;;;;21.50;60.00;;;;;;1538892;76;1167;-66
2023/02/18 12:03:30;;;;;;;;;;;21.40;60.20;;;;;;1536498;76;1929;-63
2023/02/18 12:05:32;;;;;;;;;;;21.50;60.80;;;;;;1539232;76;785;-63
2023/02/18 12:07:36;;;;;;;;;;;21.40;61.20;;;;;;1542224;76;732;-63
2023/02/18 12:09:38;;;;;;;;;;;21.40;61.50;;;;;;1539969;76;2223;-63
2023/02/18 12:11:41;;;;;;;;;;;21.50;61.70;;;;;;1537085;76;1088;-65
2023/02/18 12:13:44;;;;;;;;;;;21.40;62.40;;;;;;1539031;76;1578;-64